Terminal Aerodrome Forecast
Issued by NWS

Home | Current Version | Previous Version | Text Only | Print | Product List | Glossary On
Versions: 1 2 3 4 5 6 7 8 9 10 11 12 13 14 15 16 17 18 19 20 21 22 23 24 25 26 27 28 29 30 31 32 33 34 35 36 37 38 39 40 41 42 43
000
FTUS43 KDLH 212300
TAFHYR
TAF
KHYR 212326Z 2200/2224 10004KT P6SM VCSH OVC030
      TEMPO 2200/2203 6SM -TSRA OVC035CB
     FM220300 08003KT P6SM OVC025
     FM220600 VRB02KT 1SM BR OVC006
      TEMPO 2208/2212 1/2SM FG VV003
     FM221500 VRB03KT 5SM BR OVC008
     FM221700 VRB03KT P6SM OVC015
     FM222000 VRB03KT P6SM BKN030=

USA.gov is the U.S. government's official web portal to all federal, state and local government web resources and services.